CEB326 RPLL-RPVE
Flight info
| Callsign | CEB326 |
|---|---|
| Flight time | 0h 35m |
| Altitude | 23000 |
| Route | VERDE2V VERDE W24 TAPER TAPER7B |
| Aircraft | A320/M-SDE3FGHIRWY/LB1 |
Departure
| Time | 2026-04-22 09:18 |
|---|---|
| Airport | Ninoy Aquino International Airport (RPLL) |
Arrival
| Time | 2026-04-22 09:53 |
|---|---|
| Airport | Godofredo P. Ramos Airport (RPVE) |
| Time | Latitude | Longitude | Altitude | Speed | Heading |
|---|---|---|---|---|---|
| 2026-04-22 09:05 | 14.52153 | 121.01048 | 69 ft | 0 kts | 45° |
| 2026-04-22 09:06 | 14.52152 | 121.01048 | 69 ft | 0 kts | 45° |
| 2026-04-22 09:11 | 14.52147 | 121.01042 | 64 ft | 2 kts | 45° |
| 2026-04-22 09:11 | 14.52134 | 121.01030 | 61 ft | 2 kts | 45° |
| 2026-04-22 09:11 | 14.52122 | 121.01017 | 62 ft | 2 kts | 45° |
| 2026-04-22 09:12 | 14.52110 | 121.01005 | 60 ft | 2 kts | 45° |
| 2026-04-22 09:12 | 14.52098 | 121.00992 | 62 ft | 2 kts | 45° |
| 2026-04-22 09:12 | 14.52086 | 121.00980 | 60 ft | 2 kts | 45° |
| 2026-04-22 09:12 | 14.52071 | 121.00970 | 63 ft | 3 kts | 8° |
| 2026-04-22 09:13 | 14.52053 | 121.00970 | 64 ft | 3 kts | 332° |
| 2026-04-22 09:13 | 14.52051 | 121.00971 | 65 ft | 0 kts | 330° |
| 2026-04-22 09:14 | 14.52067 | 121.00959 | 62 ft | 6 kts | 320° |
| 2026-04-22 09:14 | 14.52092 | 121.00933 | 62 ft | 5 kts | 315° |
| 2026-04-22 09:14 | 14.52113 | 121.00913 | 66 ft | 4 kts | 315° |
| 2026-04-22 09:15 | 14.52128 | 121.00897 | 62 ft | 3 kts | 315° |
| 2026-04-22 09:15 | 14.52138 | 121.00887 | 65 ft | 2 kts | 315° |
| 2026-04-22 09:15 | 14.52163 | 121.00862 | 60 ft | 6 kts | 315° |
| 2026-04-22 09:15 | 14.52213 | 121.00799 | 68 ft | 11 kts | 287° |
| 2026-04-22 09:16 | 14.52180 | 121.00741 | 67 ft | 7 kts | 226° |
| 2026-04-22 09:16 | 14.52149 | 121.00707 | 62 ft | 7 kts | 226° |
| 2026-04-22 09:16 | 14.52109 | 121.00680 | 60 ft | 9 kts | 188° |
| 2026-04-22 09:16 | 14.52069 | 121.00705 | 61 ft | 0 kts | 137° |
| 2026-04-22 09:17 | 14.52069 | 121.00706 | 61 ft | 3 kts | 137° |
| 2026-04-22 09:17 | 14.51859 | 121.00919 | 67 ft | 80 kts | 134° |
| 2026-04-22 09:18 | 14.51321 | 121.01484 | 62 ft | 138 kts | 134° |
| 2026-04-22 09:18 | 14.50566 | 121.02242 | 429 ft | 159 kts | 136° |
| 2026-04-22 09:18 | 14.49767 | 121.03039 | 1125 ft | 158 kts | 131° |
| 2026-04-22 09:18 | 14.48998 | 121.03840 | 1853 ft | 157 kts | 131° |
| 2026-04-22 09:19 | 14.48195 | 121.04682 | 2228 ft | 174 kts | 131° |
| 2026-04-22 09:19 | 14.47291 | 121.05632 | 2508 ft | 196 kts | 132° |
| 2026-04-22 09:19 | 14.46308 | 121.06661 | 2821 ft | 215 kts | 133° |
| 2026-04-22 09:19 | 14.45191 | 121.07826 | 3221 ft | 241 kts | 133° |
| 2026-04-22 09:20 | 14.43893 | 121.09028 | 3804 ft | 259 kts | 147° |
| 2026-04-22 09:20 | 14.42146 | 121.09534 | 4633 ft | 270 kts | 180° |
| 2026-04-22 09:20 | 14.40276 | 121.09207 | 5480 ft | 275 kts | 191° |
| 2026-04-22 09:20 | 14.38400 | 121.08750 | 6356 ft | 279 kts | 193° |
| 2026-04-22 09:21 | 14.36501 | 121.08265 | 7145 ft | 284 kts | 193° |
| 2026-04-22 09:21 | 14.34567 | 121.07770 | 7944 ft | 289 kts | 192° |
| 2026-04-22 09:21 | 14.32598 | 121.07272 | 8749 ft | 293 kts | 191° |
| 2026-04-22 09:21 | 14.30598 | 121.06777 | 9544 ft | 298 kts | 191° |
| 2026-04-22 09:22 | 14.28580 | 121.06206 | 10262 ft | 305 kts | 199° |
| 2026-04-22 09:22 | 14.26624 | 121.05168 | 10548 ft | 330 kts | 213° |
| 2026-04-22 09:22 | 14.24668 | 121.03780 | 10801 ft | 351 kts | 213° |
| 2026-04-22 09:22 | 14.22635 | 121.02329 | 11367 ft | 359 kts | 214° |
| 2026-04-22 09:23 | 14.20570 | 121.00858 | 12064 ft | 362 kts | 214° |
| 2026-04-22 09:23 | 14.18487 | 120.99377 | 12761 ft | 365 kts | 214° |
| 2026-04-22 09:23 | 14.16383 | 120.97886 | 13441 ft | 369 kts | 214° |
| 2026-04-22 09:23 | 14.14255 | 120.96386 | 14049 ft | 372 kts | 214° |
| 2026-04-22 09:24 | 14.12110 | 120.94879 | 14647 ft | 375 kts | 214° |
| 2026-04-22 09:24 | 14.09949 | 120.93359 | 15243 ft | 377 kts | 214° |
| 2026-04-22 09:24 | 14.07744 | 120.91877 | 15815 ft | 381 kts | 209° |
| 2026-04-22 09:24 | 14.05292 | 120.90824 | 16377 ft | 384 kts | 196° |
| 2026-04-22 09:25 | 14.02657 | 120.90356 | 16927 ft | 387 kts | 183° |
| 2026-04-22 09:25 | 13.99995 | 120.90501 | 17469 ft | 390 kts | 170° |
| 2026-04-22 09:25 | 13.97341 | 120.91140 | 18002 ft | 393 kts | 166° |
| 2026-04-22 09:25 | 13.94668 | 120.91829 | 18475 ft | 397 kts | 166° |
| 2026-04-22 09:26 | 13.91983 | 120.92518 | 18929 ft | 399 kts | 166° |
| 2026-04-22 09:26 | 13.89274 | 120.93211 | 19381 ft | 402 kts | 167° |
| 2026-04-22 09:26 | 13.86550 | 120.93908 | 19836 ft | 405 kts | 167° |
| 2026-04-22 09:26 | 13.83806 | 120.94615 | 20282 ft | 408 kts | 167° |
| 2026-04-22 09:27 | 13.81044 | 120.95324 | 20724 ft | 411 kts | 167° |
| 2026-04-22 09:27 | 13.78260 | 120.96043 | 21155 ft | 413 kts | 167° |
| 2026-04-22 09:27 | 13.75461 | 120.96761 | 21600 ft | 416 kts | 167° |
| 2026-04-22 09:27 | 13.72644 | 120.97481 | 22023 ft | 419 kts | 168° |
| 2026-04-22 09:28 | 13.69801 | 120.98207 | 22435 ft | 422 kts | 168° |
| 2026-04-22 09:28 | 13.66942 | 120.98934 | 22774 ft | 424 kts | 168° |
| 2026-04-22 09:28 | 13.64114 | 120.99655 | 22851 ft | 426 kts | 167° |
| 2026-04-22 09:28 | 13.61237 | 121.00390 | 22867 ft | 426 kts | 167° |
| 2026-04-22 09:29 | 13.58362 | 121.01123 | 22863 ft | 426 kts | 168° |
| 2026-04-22 09:29 | 13.55487 | 121.01861 | 22868 ft | 426 kts | 167° |
| 2026-04-22 09:29 | 13.52620 | 121.02616 | 22870 ft | 426 kts | 165° |
| 2026-04-22 09:29 | 13.49857 | 121.03735 | 22873 ft | 428 kts | 154° |
| 2026-04-22 09:30 | 13.47313 | 121.05332 | 22876 ft | 429 kts | 146° |
| 2026-04-22 09:30 | 13.44857 | 121.07077 | 22876 ft | 430 kts | 146° |
| 2026-04-22 09:30 | 13.42390 | 121.08816 | 22881 ft | 430 kts | 147° |
| 2026-04-22 09:30 | 13.39922 | 121.10545 | 22881 ft | 430 kts | 147° |
| 2026-04-22 09:31 | 13.37444 | 121.12274 | 22885 ft | 430 kts | 147° |
| 2026-04-22 09:31 | 13.34968 | 121.14003 | 22887 ft | 430 kts | 147° |
| 2026-04-22 09:31 | 13.32499 | 121.15732 | 22891 ft | 430 kts | 147° |
| 2026-04-22 09:31 | 13.30029 | 121.17465 | 22889 ft | 430 kts | 147° |
| 2026-04-22 09:32 | 13.27595 | 121.19174 | 22889 ft | 429 kts | 147° |
| 2026-04-22 09:32 | 13.25132 | 121.20904 | 22894 ft | 429 kts | 147° |
| 2026-04-22 09:32 | 13.22665 | 121.22636 | 22895 ft | 429 kts | 147° |
| 2026-04-22 09:32 | 13.20200 | 121.24363 | 22899 ft | 429 kts | 147° |
| 2026-04-22 09:33 | 13.17738 | 121.26087 | 22895 ft | 428 kts | 147° |
| 2026-04-22 09:33 | 13.15275 | 121.27811 | 22896 ft | 428 kts | 147° |
| 2026-04-22 09:33 | 13.12815 | 121.29534 | 22898 ft | 428 kts | 147° |
| 2026-04-22 09:33 | 13.10357 | 121.31257 | 22896 ft | 428 kts | 147° |
| 2026-04-22 09:34 | 13.07901 | 121.32979 | 22895 ft | 428 kts | 147° |
| 2026-04-22 09:34 | 13.05439 | 121.34704 | 22894 ft | 428 kts | 147° |
| 2026-04-22 09:34 | 13.02984 | 121.36422 | 22891 ft | 428 kts | 147° |
| 2026-04-22 09:35 | 12.98067 | 121.39860 | 22893 ft | 428 kts | 147° |
| 2026-04-22 09:35 | 12.95611 | 121.41576 | 22891 ft | 427 kts | 146° |
| 2026-04-22 09:35 | 12.93156 | 121.43295 | 22890 ft | 427 kts | 146° |
| 2026-04-22 09:35 | 12.90732 | 121.44993 | 22892 ft | 427 kts | 146° |
| 2026-04-22 09:36 | 12.88279 | 121.46710 | 22892 ft | 427 kts | 146° |
| 2026-04-22 09:36 | 12.85820 | 121.48428 | 22894 ft | 427 kts | 146° |
| 2026-04-22 09:36 | 12.83356 | 121.50147 | 22891 ft | 427 kts | 146° |
| 2026-04-22 09:36 | 12.80900 | 121.51858 | 22893 ft | 427 kts | 146° |
| 2026-04-22 09:37 | 12.78442 | 121.53570 | 22893 ft | 427 kts | 146° |
| 2026-04-22 09:37 | 12.75984 | 121.55282 | 22893 ft | 427 kts | 146° |
| 2026-04-22 09:37 | 12.73528 | 121.56996 | 22891 ft | 427 kts | 146° |
| 2026-04-22 09:37 | 12.71076 | 121.58709 | 22888 ft | 426 kts | 146° |
| 2026-04-22 09:38 | 12.68621 | 121.60426 | 22885 ft | 426 kts | 146° |
| 2026-04-22 09:38 | 12.66201 | 121.62118 | 22889 ft | 426 kts | 146° |
| 2026-04-22 09:38 | 12.63747 | 121.63829 | 22886 ft | 425 kts | 146° |
| 2026-04-22 09:38 | 12.61301 | 121.65533 | 22753 ft | 425 kts | 146° |
| 2026-04-22 09:39 | 12.58868 | 121.67227 | 21618 ft | 423 kts | 146° |
| 2026-04-22 09:39 | 12.56441 | 121.68916 | 20484 ft | 420 kts | 146° |
| 2026-04-22 09:39 | 12.54044 | 121.70587 | 19530 ft | 413 kts | 146° |
| 2026-04-22 09:39 | 12.51716 | 121.72209 | 19009 ft | 396 kts | 146° |
| 2026-04-22 09:40 | 12.49482 | 121.73767 | 18507 ft | 381 kts | 146° |
| 2026-04-22 09:40 | 12.47330 | 121.75272 | 17982 ft | 368 kts | 145° |
| 2026-04-22 09:40 | 12.45267 | 121.76713 | 17466 ft | 356 kts | 146° |
| 2026-04-22 09:40 | 12.43225 | 121.78134 | 16993 ft | 355 kts | 146° |
| 2026-04-22 09:41 | 12.41182 | 121.79554 | 16505 ft | 355 kts | 146° |
| 2026-04-22 09:41 | 12.39137 | 121.80972 | 16045 ft | 355 kts | 146° |
| 2026-04-22 09:41 | 12.37054 | 121.82321 | 15579 ft | 354 kts | 153° |
| 2026-04-22 09:41 | 12.34778 | 121.83285 | 15105 ft | 354 kts | 164° |
| 2026-04-22 09:42 | 12.33212 | 121.83747 | 14797 ft | 353 kts | 165° |
| 2026-04-22 09:42 | 12.30846 | 121.84445 | 14319 ft | 354 kts | 165° |
| 2026-04-22 09:42 | 12.27680 | 121.85389 | 13668 ft | 354 kts | 165° |
| 2026-04-22 09:42 | 12.25346 | 121.86086 | 13147 ft | 354 kts | 165° |
| 2026-04-22 09:43 | 12.22987 | 121.86790 | 12654 ft | 352 kts | 165° |
| 2026-04-22 09:43 | 12.21400 | 121.87263 | 12323 ft | 351 kts | 165° |
| 2026-04-22 09:43 | 12.19059 | 121.87961 | 11813 ft | 350 kts | 165° |
| 2026-04-22 09:43 | 12.15975 | 121.88882 | 11148 ft | 348 kts | 165° |
| 2026-04-22 09:44 | 12.14408 | 121.89349 | 10804 ft | 347 kts | 165° |
| 2026-04-22 09:44 | 12.12124 | 121.90030 | 10320 ft | 345 kts | 165° |
| 2026-04-22 09:44 | 12.09858 | 121.90706 | 10175 ft | 333 kts | 165° |
| 2026-04-22 09:44 | 12.07658 | 121.91263 | 10060 ft | 318 kts | 175° |
| 2026-04-22 09:45 | 12.05502 | 121.91135 | 9941 ft | 304 kts | 195° |
| 2026-04-22 09:45 | 12.03604 | 121.90303 | 9753 ft | 292 kts | 215° |
| 2026-04-22 09:45 | 12.02119 | 121.88913 | 9430 ft | 290 kts | 233° |
| 2026-04-22 09:45 | 12.00955 | 121.87230 | 9037 ft | 290 kts | 235° |
| 2026-04-22 09:46 | 11.99801 | 121.85542 | 8625 ft | 289 kts | 235° |
| 2026-04-22 09:46 | 11.98645 | 121.83856 | 8213 ft | 289 kts | 234° |
| 2026-04-22 09:46 | 11.97505 | 121.82198 | 7816 ft | 289 kts | 234° |
| 2026-04-22 09:46 | 11.96347 | 121.80516 | 7414 ft | 290 kts | 234° |
| 2026-04-22 09:47 | 11.95189 | 121.78833 | 7005 ft | 289 kts | 234° |
| 2026-04-22 09:47 | 11.94031 | 121.77152 | 6603 ft | 289 kts | 234° |
| 2026-04-22 09:47 | 11.92870 | 121.75479 | 6181 ft | 288 kts | 231° |
| 2026-04-22 09:47 | 11.91364 | 121.74199 | 5761 ft | 280 kts | 200° |
| 2026-04-22 09:48 | 11.89519 | 121.73942 | 5361 ft | 261 kts | 168° |
| 2026-04-22 09:48 | 11.87878 | 121.74568 | 4977 ft | 246 kts | 151° |
| 2026-04-22 09:48 | 11.86377 | 121.75347 | 4620 ft | 236 kts | 151° |
| 2026-04-22 09:48 | 11.84950 | 121.76111 | 4255 ft | 227 kts | 144° |
| 2026-04-22 09:49 | 11.84005 | 121.77300 | 3924 ft | 215 kts | 104° |
| 2026-04-22 09:49 | 11.84103 | 121.78760 | 3621 ft | 208 kts | 67° |
| 2026-04-22 09:49 | 11.84747 | 121.80069 | 3336 ft | 210 kts | 64° |
| 2026-04-22 09:49 | 11.85421 | 121.81403 | 3035 ft | 212 kts | 64° |
| 2026-04-22 09:50 | 11.86096 | 121.82741 | 2731 ft | 212 kts | 65° |
| 2026-04-22 09:50 | 11.86773 | 121.84078 | 2423 ft | 211 kts | 65° |
| 2026-04-22 09:50 | 11.87436 | 121.85389 | 2127 ft | 203 kts | 65° |
| 2026-04-22 09:50 | 11.88063 | 121.86634 | 1843 ft | 191 kts | 64° |
| 2026-04-22 09:51 | 11.88653 | 121.87810 | 1635 ft | 178 kts | 64° |
| 2026-04-22 09:51 | 11.89191 | 121.88881 | 1387 ft | 162 kts | 64° |
| 2026-04-22 09:51 | 11.89676 | 121.89842 | 1193 ft | 144 kts | 64° |
| 2026-04-22 09:51 | 11.90121 | 121.90728 | 994 ft | 137 kts | 62° |
| 2026-04-22 09:52 | 11.90547 | 121.91577 | 813 ft | 134 kts | 64° |
| 2026-04-22 09:52 | 11.90968 | 121.92422 | 637 ft | 134 kts | 63° |
| 2026-04-22 09:52 | 11.91391 | 121.93269 | 464 ft | 134 kts | 63° |
| 2026-04-22 09:52 | 11.91823 | 121.94129 | 265 ft | 136 kts | 62° |
| 2026-04-22 09:53 | 11.92246 | 121.94977 | 86 ft | 133 kts | 63° |
| 2026-04-22 09:53 | 11.92624 | 121.95732 | 27 ft | 88 kts | 63° |
| 2026-04-22 09:53 | 11.92800 | 121.96084 | 26 ft | 39 kts | 63° |
| 2026-04-22 09:53 | 11.92899 | 121.96283 | 25 ft | 17 kts | 63° |
| 2026-04-22 09:54 | 11.92952 | 121.96387 | 25 ft | 16 kts | 62° |
| 2026-04-22 09:54 | 11.92952 | 121.96461 | 24 ft | 10 kts | 141° |
| 2026-04-22 09:54 | 11.92895 | 121.96492 | 27 ft | 8 kts | 153° |
| 2026-04-22 09:54 | 11.92851 | 121.96516 | 26 ft | 7 kts | 153° |
| 2026-04-22 09:55 | 11.92808 | 121.96521 | 26 ft | 6 kts | 211° |
| 2026-04-22 09:55 | 11.92780 | 121.96490 | 26 ft | 7 kts | 243° |
| 2026-04-22 09:55 | 11.92752 | 121.96429 | 26 ft | 10 kts | 244° |
| 2026-04-22 09:55 | 11.92726 | 121.96392 | 26 ft | 4 kts | 204° |
| 2026-04-22 09:56 | 11.92702 | 121.96398 | 26 ft | 3 kts | 152° |
| 2026-04-22 09:56 | 11.92690 | 121.96405 | 26 ft | 0 kts | 152° |